Time;durP1;ratioP1;P1;durP2;ratioP2;P2;SDS_P1;SDS_P2;PMS_P1;PMS_P2;Temp;Humidity;BMP_temperature;BMP_pressure;BME280_temperature;BME280_humidity;BME280_pressure;Samples;Min_cycle;Max_cycle;Signal;HPM_P1;HPM_P2
2022/09/26 00:01:05;;;;;;;14.82;3.85;;;;;;;;;;5012674;28;20029;-59
2022/09/26 00:03:32;;;;;;;15.35;4.15;;;;;;;;;;5025989;28;20446;-59
2022/09/26 00:06:00;;;;;;;14.18;4.07;;;;;;;;;;5031468;28;20075;-59
2022/09/26 00:08:27;;;;;;;16.85;4.65;;;;;;;;;;5020744;28;20442;-60
2022/09/26 00:11:01;;;;;;;16.45;3.67;;;;;;;;;;5022896;28;20479;-59
2022/09/26 00:13:29;;;;;;;16.20;4.25;;;;;;;;;;5032581;28;20069;-58
2022/09/26 00:15:56;;;;;;;14.98;4.13;;;;;;;;;;5031885;28;20111;-59
2022/09/26 00:18:24;;;;;;;23.02;5.35;;;;;;;;;;5032383;28;20029;-59
2022/09/26 00:20:51;;;;;;;19.20;4.80;;;;;;;;;;5031990;28;20110;-59
2022/09/26 00:23:18;;;;;;;31.63;4.82;;;;;;;;;;5032328;28;20086;-60
2022/09/26 00:25:46;;;;;;;32.40;5.55;;;;;;;;;;5021209;28;20030;-60
2022/09/26 00:28:13;;;;;;;20.35;4.88;;;;;;;;;;5021690;28;20029;-59
2022/09/26 00:30:40;;;;;;;27.65;5.00;;;;;;;;;;5032929;28;20025;-59
2022/09/26 00:33:07;;;;;;;40.90;5.90;;;;;;;;;;5026658;28;20443;-58
2022/09/26 00:35:34;;;;;;;23.30;5.40;;;;;;;;;;5032748;28;20033;-61
2022/09/26 00:38:01;;;;;;;35.83;6.18;;;;;;;;;;5019160;28;20018;-56
2022/09/26 00:40:29;;;;;;;27.15;5.78;;;;;;;;;;5015887;28;20029;-58
2022/09/26 00:42:56;;;;;;;35.10;6.95;;;;;;;;;;5026608;28;20041;-58
2022/09/26 00:45:25;;;;;;;27.52;6.78;;;;;;;;;;5030919;28;20498;-58
2022/09/26 00:48:00;;;;;;;34.25;6.57;;;;;;;;;;5031059;28;20087;-57
2022/09/26 00:50:37;;;;;;;30.35;6.40;;;;;;;;;;5023192;28;20448;-58
2022/09/26 00:53:07;;;;;;;32.97;7.10;;;;;;;;;;5015605;28;20033;-57
2022/09/26 00:55:38;;;;;;;37.00;7.05;;;;;;;;;;5028319;28;20483;-57
2022/09/26 00:58:11;;;;;;;23.60;6.38;;;;;;;;;;5030403;28;20100;-57
2022/09/26 01:00:40;;;;;;;25.15;6.40;;;;;;;;;;5019258;28;20026;-56
2022/09/26 01:03:07;;;;;;;21.05;6.57;;;;;;;;;;5032768;28;20049;-56
2022/09/26 01:05:34;;;;;;;21.17;6.32;;;;;;;;;;5032942;28;20033;-57
2022/09/26 01:08:02;;;;;;;22.00;6.18;;;;;;;;;;5032648;28;20025;-57
2022/09/26 01:10:29;;;;;;;28.42;6.65;;;;;;;;;;5032248;28;20040;-56
2022/09/26 01:12:57;;;;;;;23.33;6.38;;;;;;;;;;5032714;28;20105;-57
2022/09/26 01:15:24;;;;;;;20.23;5.95;;;;;;;;;;5032316;28;20542;-57
2022/09/26 01:17:51;;;;;;;33.20;5.97;;;;;;;;;;5028739;28;20809;-57
2022/09/26 01:20:25;;;;;;;19.17;5.90;;;;;;;;;;5026496;28;20028;-56
2022/09/26 01:23:10;;;;;;;18.10;6.22;;;;;;;;;;5031810;28;20037;-55
2022/09/26 01:25:55;;;;;;;22.27;5.82;;;;;;;;;;5017125;28;20061;-54
2022/09/26 01:28:25;;;;;;;25.42;5.93;;;;;;;;;;5031633;28;20053;-54
2022/09/26 01:31:01;;;;;;;38.30;6.13;;;;;;;;;;5034903;28;20497;-56
2022/09/26 01:33:28;;;;;;;21.33;5.82;;;;;;;;;;5016187;28;20030;-60
2022/09/26 01:36:16;;;;;;;24.27;6.35;;;;;;;;;;5031643;28;20033;-60
2022/09/26 01:39:21;;;;;;;22.65;5.50;;;;;;;;;;5013988;28;20030;-61
2022/09/26 01:42:20;;;;;;;18.45;5.13;;;;;;;;;;5005766;28;20045;-60
2022/09/26 01:44:50;;;;;;;17.85;4.65;;;;;;;;;;4987780;28;20411;-61
2022/09/26 01:47:27;;;;;;;18.58;5.60;;;;;;;;;;5024821;28;20125;-59
2022/09/26 01:50:02;;;;;;;18.85;5.05;;;;;;;;;;5028551;28;20088;-59
2022/09/26 01:52:38;;;;;;;15.05;4.75;;;;;;;;;;5030104;28;20436;-59
2022/09/26 01:55:12;;;;;;;13.70;4.68;;;;;;;;;;5030432;28;20114;-60
2022/09/26 01:57:52;;;;;;;11.10;4.85;;;;;;;;;;5027253;28;20479;-59
2022/09/26 02:00:19;;;;;;;11.20;4.63;;;;;;;;;;5030020;28;20025;-59
2022/09/26 02:02:48;;;;;;;12.98;4.82;;;;;;;;;;5031552;28;20125;-60
2022/09/26 02:05:14;;;;;;;13.13;4.32;;;;;;;;;;5030473;28;20018;-59
2022/09/26 02:07:53;;;;;;;14.38;4.40;;;;;;;;;;5031176;28;20352;-59
2022/09/26 02:10:22;;;;;;;10.85;4.10;;;;;;;;;;5029445;28;20033;-59
2022/09/26 02:12:53;;;;;;;15.43;5.10;;;;;;;;;;5030658;28;20129;-59
2022/09/26 02:15:23;;;;;;;10.85;4.25;;;;;;;;;;5028455;28;20132;-59
2022/09/26 02:17:53;;;;;;;12.05;4.40;;;;;;;;;;5030538;28;20391;-59
2022/09/26 02:20:38;;;;;;;10.27;4.55;;;;;;;;;;5030342;28;20029;-59
2022/09/26 02:23:05;;;;;;;13.18;4.10;;;;;;;;;;5029508;28;20046;-59
2022/09/26 02:25:33;;;;;;;13.48;4.57;;;;;;;;;;5030790;28;20022;-59
2022/09/26 02:28:00;;;;;;;14.48;4.53;;;;;;;;;;5030702;28;20037;-59
2022/09/26 02:30:27;;;;;;;14.27;4.63;;;;;;;;;;5030456;28;20044;-59
2022/09/26 02:32:54;;;;;;;6.18;3.67;;;;;;;;;;5030494;28;20037;-60
2022/09/26 02:38:06;;;;;;;7.75;3.80;;;;;;;;;;5031997;28;20701;-59
2022/09/26 02:40:50;;;;;;;10.38;4.05;;;;;;;;;;5034504;28;20021;-59
2022/09/26 02:43:17;;;;;;;8.65;4.28;;;;;;;;;;5035605;28;20167;-59
2022/09/26 02:46:01;;;;;;;11.38;3.80;;;;;;;;;;5035709;28;20025;-59
2022/09/26 02:48:32;;;;;;;8.68;4.03;;;;;;;;;;5035569;28;20159;-59
2022/09/26 02:50:59;;;;;;;6.32;3.20;;;;;;;;;;5035442;28;20491;-59
2022/09/26 02:53:36;;;;;;;9.45;3.45;;;;;;;;;;5035507;28;20029;-59
2022/09/26 02:56:13;;;;;;;7.45;3.30;;;;;;;;;;5035572;28;20030;-59
2022/09/26 02:58:41;;;;;;;7.55;3.67;;;;;;;;;;5035467;28;20400;-59
2022/09/26 03:01:14;;;;;;;6.05;3.03;;;;;;;;;;5035278;28;20128;-59
2022/09/26 03:03:50;;;;;;;6.40;3.40;;;;;;;;;;5035360;28;20030;-59
2022/09/26 03:06:20;;;;;;;6.75;3.50;;;;;;;;;;5035174;28;20080;-59
2022/09/26 03:08:48;;;;;;;7.82;3.42;;;;;;;;;;5035246;28;20313;-59
2022/09/26 03:11:25;;;;;;;6.30;3.33;;;;;;;;;;5035100;28;20029;-59
2022/09/26 03:13:53;;;;;;;8.40;3.42;;;;;;;;;;5035059;28;20021;-60
2022/09/26 03:16:21;;;;;;;6.47;3.33;;;;;;;;;;5035231;28;20029;-59
2022/09/26 03:19:14;;;;;;;7.95;3.22;;;;;;;;;;5035029;28;20022;-59
2022/09/26 03:21:40;;;;;;;;;;;;;;;;;;5035432;28;20029;-59
2022/09/26 03:24:08;;;;;;;6.70;3.50;;;;;;;;;;5035125;28;19948;-59
2022/09/26 03:26:36;;;;;;;6.57;3.20;;;;;;;;;;5035252;28;20108;-59
2022/09/26 03:29:03;;;;;;;6.82;3.30;;;;;;;;;;5034733;28;20083;-59
2022/09/26 03:31:30;;;;;;;5.38;3.00;;;;;;;;;;5034828;28;20041;-59
2022/09/26 03:33:57;;;;;;;5.68;2.75;;;;;;;;;;5034792;28;20029;-59
2022/09/26 03:36:24;;;;;;;5.93;3.28;;;;;;;;;;5034866;28;20033;-59
2022/09/26 03:38:51;;;;;;;5.75;3.00;;;;;;;;;;5034549;28;20487;-59
2022/09/26 03:41:18;;;;;;;4.85;2.80;;;;;;;;;;5034595;28;20499;-59
2022/09/26 03:43:45;;;;;;;6.05;3.30;;;;;;;;;;5034728;28;20037;-59
2022/09/26 03:46:14;;;;;;;7.43;2.97;;;;;;;;;;5034572;28;20021;-59
2022/09/26 03:48:42;;;;;;;5.38;3.10;;;;;;;;;;5033827;28;20431;-59
2022/09/26 03:51:09;;;;;;;5.50;2.83;;;;;;;;;;5034292;28;20040;-59
2022/09/26 03:53:37;;;;;;;6.15;3.08;;;;;;;;;;5034498;28;20099;-59
2022/09/26 03:56:11;;;;;;;5.88;2.85;;;;;;;;;;5034358;28;20025;-60
2022/09/26 03:58:38;;;;;;;5.55;2.85;;;;;;;;;;5034422;28;20057;-59
2022/09/26 04:01:07;;;;;;;6.13;3.05;;;;;;;;;;5033921;28;20033;-59
2022/09/26 04:03:37;;;;;;;6.25;3.08;;;;;;;;;;5034247;28;20380;-59
2022/09/26 04:06:05;;;;;;;4.07;2.55;;;;;;;;;;5034145;28;20026;-59
2022/09/26 04:08:32;;;;;;;4.50;3.28;;;;;;;;;;5034162;28;20059;-59
2022/09/26 04:11:02;;;;;;;5.93;2.85;;;;;;;;;;5034116;28;20037;-59
2022/09/26 04:13:29;;;;;;;6.70;3.38;;;;;;;;;;5033935;28;20040;-59
2022/09/26 04:15:57;;;;;;;4.78;3.10;;;;;;;;;;5033930;28;20049;-59
2022/09/26 04:18:24;;;;;;;3.97;3.08;;;;;;;;;;5034014;28;20053;-59
2022/09/26 04:20:57;;;;;;;6.22;3.00;;;;;;;;;;5033558;28;20022;-59
2022/09/26 04:23:25;;;;;;;5.38;2.80;;;;;;;;;;5033779;28;20116;-59
2022/09/26 04:25:52;;;;;;;4.03;2.63;;;;;;;;;;5033898;28;20024;-59
2022/09/26 04:28:19;;;;;;;5.05;3.05;;;;;;;;;;5033920;28;20045;-59
2022/09/26 04:30:46;;;;;;;5.38;2.95;;;;;;;;;;5033628;28;20487;-59
2022/09/26 04:33:13;;;;;;;4.90;2.85;;;;;;;;;;5033500;28;20041;-59
2022/09/26 04:35:40;;;;;;;4.55;2.95;;;;;;;;;;5033645;28;20030;-59
2022/09/26 04:38:07;;;;;;;4.78;3.17;;;;;;;;;;5033738;28;20034;-59
2022/09/26 04:40:34;;;;;;;6.68;2.58;;;;;;;;;;5033431;28;20039;-60
2022/09/26 04:43:01;;;;;;;5.15;2.90;;;;;;;;;;5033343;28;20041;-59
2022/09/26 04:45:28;;;;;;;4.00;2.90;;;;;;;;;;5033410;28;20057;-59
2022/09/26 04:47:55;;;;;;;4.95;2.97;;;;;;;;;;5033505;28;20069;-59
2022/09/26 04:50:23;;;;;;;4.43;2.65;;;;;;;;;;5033229;28;20439;-59
2022/09/26 04:52:50;;;;;;;4.22;2.78;;;;;;;;;;5033385;28;20049;-59
2022/09/26 04:55:17;;;;;;;3.58;2.72;;;;;;;;;;5033307;28;20052;-59
2022/09/26 04:57:45;;;;;;;5.03;2.67;;;;;;;;;;5033076;28;20125;-59
2022/09/26 05:00:13;;;;;;;4.50;2.90;;;;;;;;;;5033133;28;20033;-59
2022/09/26 05:02:41;;;;;;;3.75;2.63;;;;;;;;;;5033194;28;20118;-59
2022/09/26 05:05:08;;;;;;;3.88;2.80;;;;;;;;;;5033154;28;20033;-59
2022/09/26 05:07:39;;;;;;;5.75;2.78;;;;;;;;;;5033120;28;20032;-59
2022/09/26 05:10:09;;;;;;;4.50;2.60;;;;;;;;;;5032790;28;20079;-59
2022/09/26 05:12:40;;;;;;;3.60;2.50;;;;;;;;;;5033264;28;20395;-59
2022/09/26 05:15:07;;;;;;;3.25;2.60;;;;;;;;;;5032913;28;20503;-59
2022/09/26 05:17:38;;;;;;;4.57;3.03;;;;;;;;;;5032930;28;20025;-59
2022/09/26 05:20:09;;;;;;;2.92;2.40;;;;;;;;;;5032615;28;20045;-59
2022/09/26 05:22:36;;;;;;;3.25;2.50;;;;;;;;;;5032883;28;20042;-59
2022/09/26 05:27:52;;;;;;;3.25;2.50;;;;;;;;;;5033097;28;20044;-59
2022/09/26 05:30:19;;;;;;;3.28;2.20;;;;;;;;;;5032700;28;20510;-59
2022/09/26 05:32:47;;;;;;;4.78;2.70;;;;;;;;;;5032857;28;20080;-59
2022/09/26 05:35:14;;;;;;;3.30;2.35;;;;;;;;;;5032562;28;20114;-59
2022/09/26 05:37:41;;;;;;;4.20;2.65;;;;;;;;;;5032744;28;20477;-59
2022/09/26 05:42:59;;;;;;;3.85;2.63;;;;;;;;;;5032626;28;20107;-59
2022/09/26 05:45:30;;;;;;;3.85;2.67;;;;;;;;;;5032621;28;20037;-59
2022/09/26 05:47:57;;;;;;;3.53;2.60;;;;;;;;;;5032625;28;20124;-59
2022/09/26 05:50:24;;;;;;;2.88;2.33;;;;;;;;;;5032533;28;20025;-59
2022/09/26 05:52:51;;;;;;;4.40;2.28;;;;;;;;;;5032445;28;20092;-59
2022/09/26 05:55:18;;;;;;;2.58;2.03;;;;;;;;;;5032635;28;20037;-59
2022/09/26 05:57:52;;;;;;;2.95;2.30;;;;;;;;;;5032397;28;20034;-59
2022/09/26 06:00:19;;;;;;;3.13;2.38;;;;;;;;;;5032349;28;20021;-59
2022/09/26 06:02:46;;;;;;;3.35;2.15;;;;;;;;;;5028931;28;20041;-59
2022/09/26 06:05:13;;;;;;;4.55;2.50;;;;;;;;;;5032376;28;20053;-60
2022/09/26 06:07:40;;;;;;;2.65;2.20;;;;;;;;;;5032438;28;20064;-59
2022/09/26 06:10:07;;;;;;;4.47;2.53;;;;;;;;;;5032128;28;20026;-59
2022/09/26 06:12:34;;;;;;;2.95;1.98;;;;;;;;;;5034270;28;20108;-59
2022/09/26 06:15:01;;;;;;;4.38;2.50;;;;;;;;;;5036098;28;20511;-59
2022/09/26 06:17:28;;;;;;;3.08;2.35;;;;;;;;;;5036278;28;20450;-59
2022/09/26 06:19:55;;;;;;;3.70;2.38;;;;;;;;;;5036023;28;20502;-59
2022/09/26 06:22:23;;;;;;;3.10;2.20;;;;;;;;;;5036096;28;20037;-59
2022/09/26 06:24:50;;;;;;;2.55;2.10;;;;;;;;;;5036415;28;20056;-59
2022/09/26 06:27:17;;;;;;;3.05;2.35;;;;;;;;;;5036135;28;20036;-59
2022/09/26 06:29:44;;;;;;;3.30;2.30;;;;;;;;;;5035712;28;20045;-59
2022/09/26 06:32:11;;;;;;;3.42;2.60;;;;;;;;;;5036010;28;20033;-59
2022/09/26 06:34:38;;;;;;;2.92;2.28;;;;;;;;;;5035967;28;20029;-59
2022/09/26 06:37:05;;;;;;;2.40;2.03;;;;;;;;;;5036017;28;20526;-59
2022/09/26 06:39:35;;;;;;;2.78;2.15;;;;;;;;;;5035687;28;20032;-59
2022/09/26 06:42:06;;;;;;;4.78;2.00;;;;;;;;;;5035744;28;20045;-59
2022/09/26 06:44:34;;;;;;;3.78;2.40;;;;;;;;;;5035816;28;20025;-59
2022/09/26 06:47:01;;;;;;;2.50;2.03;;;;;;;;;;5034369;28;20033;-59
2022/09/26 06:49:28;;;;;;;3.53;2.00;;;;;;;;;;5035474;28;20071;-59
2022/09/26 06:51:54;;;;;;;3.13;1.98;;;;;;;;;;5028062;28;20026;-59
2022/09/26 06:54:21;;;;;;;3.30;2.10;;;;;;;;;;5015747;28;20519;-59
2022/09/26 06:56:48;;;;;;;2.42;2.00;;;;;;;;;;5015793;28;20088;-59
2022/09/26 06:59:15;;;;;;;2.47;1.92;;;;;;;;;;5015768;28;20033;-58
2022/09/26 07:01:44;;;;;;;2.22;1.98;;;;;;;;;;5015638;28;20089;-59
2022/09/26 07:04:12;;;;;;;2.47;2.00;;;;;;;;;;5015585;28;20030;-59
2022/09/26 07:06:39;;;;;;;3.17;2.22;;;;;;;;;;5015718;28;20050;-59
2022/09/26 07:09:06;;;;;;;2.20;1.80;;;;;;;;;;5015432;28;20018;-59
2022/09/26 07:11:33;;;;;;;2.72;1.92;;;;;;;;;;5015530;28;20391;-59
2022/09/26 07:14:03;;;;;;;2.33;1.88;;;;;;;;;;5015451;28;20026;-59
2022/09/26 07:16:30;;;;;;;1.73;1.60;;;;;;;;;;5015449;28;20050;-59
2022/09/26 07:18:57;;;;;;;2.63;1.95;;;;;;;;;;5015349;28;20049;-59
2022/09/26 07:21:24;;;;;;;2.30;1.88;;;;;;;;;;5015261;28;20041;-59
2022/09/26 07:23:51;;;;;;;2.00;1.75;;;;;;;;;;5014015;28;20025;-59
2022/09/26 07:26:18;;;;;;;2.90;1.70;;;;;;;;;;5015262;28;20026;-59
2022/09/26 07:28:45;;;;;;;2.25;1.75;;;;;;;;;;5013930;28;20113;-59
2022/09/26 07:31:14;;;;;;;2.13;1.80;;;;;;;;;;5015112;28;20037;-59
2022/09/26 07:33:41;;;;;;;2.00;1.58;;;;;;;;;;5014922;28;20037;-59
2022/09/26 07:36:08;;;;;;;2.50;1.67;;;;;;;;;;5015140;28;20040;-59
2022/09/26 07:38:35;;;;;;;1.95;1.60;;;;;;;;;;5014717;28;20122;-59
2022/09/26 07:41:02;;;;;;;2.63;1.90;;;;;;;;;;5014902;28;20022;-59
2022/09/26 07:43:29;;;;;;;2.60;1.83;;;;;;;;;;5015203;28;20037;-59
2022/09/26 07:51:27;;;;;;;1.88;1.67;;;;;;;;;;5015028;28;20040;-59
2022/09/26 07:53:54;;;;;;;2.05;1.67;;;;;;;;;;5014761;28;20049;-59
2022/09/26 07:56:21;;;;;;;1.80;1.50;;;;;;;;;;5014792;28;20492;-59
2022/09/26 07:58:49;;;;;;;2.33;1.70;;;;;;;;;;5014543;28;20065;-59
2022/09/26 08:01:17;;;;;;;2.00;1.67;;;;;;;;;;5014428;28;20038;-59
2022/09/26 08:03:46;;;;;;;1.90;1.60;;;;;;;;;;5020974;23;20069;-61
2022/09/26 08:06:18;;;;;;;2.17;1.70;;;;;;;;;;4993299;28;20031;-60
2022/09/26 08:08:47;;;;;;;3.03;1.88;;;;;;;;;;4995530;28;20037;-60
2022/09/26 08:11:15;;;;;;;2.53;1.88;;;;;;;;;;4994659;28;20042;-60
2022/09/26 08:13:42;;;;;;;2.10;1.73;;;;;;;;;;4994504;28;20018;-60
2022/09/26 08:16:09;;;;;;;2.20;1.80;;;;;;;;;;4994669;28;20026;-60
2022/09/26 08:18:36;;;;;;;3.08;1.90;;;;;;;;;;4994902;28;20464;-60
2022/09/26 08:21:06;;;;;;;2.20;1.80;;;;;;;;;;4993185;28;20026;-60
2022/09/26 08:23:34;;;;;;;2.65;1.85;;;;;;;;;;4994295;28;20027;-60
2022/09/26 08:26:05;;;;;;;1.95;1.58;;;;;;;;;;4994614;28;20033;-60
2022/09/26 08:28:33;;;;;;;2.42;1.88;;;;;;;;;;4994452;28;20041;-60
2022/09/26 08:31:01;;;;;;;2.45;1.80;;;;;;;;;;4994469;28;20466;-60
2022/09/26 08:33:28;;;;;;;2.00;1.60;;;;;;;;;;4994112;28;20026;-60
2022/09/26 08:35:55;;;;;;;1.92;1.65;;;;;;;;;;4993980;28;20539;-60
2022/09/26 08:38:22;;;;;;;1.80;1.50;;;;;;;;;;4994149;28;20031;-60
2022/09/26 08:40:52;;;;;;;2.00;1.48;;;;;;;;;;4994311;28;20698;-60
2022/09/26 08:43:19;;;;;;;1.80;1.30;;;;;;;;;;4994099;28;20101;-60
2022/09/26 08:48:46;;;;;;;2.50;1.65;;;;;;;;;;4993881;28;20046;-60
2022/09/26 08:51:32;;;;;;;1.65;1.50;;;;;;;;;;4994011;28;20101;-60
2022/09/26 08:54:05;;;;;;;1.50;1.40;;;;;;;;;;4994044;28;20035;-60
2022/09/26 08:56:36;;;;;;;2.55;1.52;;;;;;;;;;4993881;28;20032;-60
2022/09/26 08:59:04;;;;;;;1.90;1.48;;;;;;;;;;4994010;28;20033;-60
2022/09/26 09:01:36;;;;;;;1.80;1.33;;;;;;;;;;4993778;28;20102;-60
2022/09/26 09:04:07;;;;;;;1.40;1.30;;;;;;;;;;4993433;28;20104;-60
2022/09/26 09:06:34;;;;;;;1.33;1.23;;;;;;;;;;4993606;28;20431;-60
2022/09/26 09:09:01;;;;;;;1.88;1.67;;;;;;;;;;4993737;28;20062;-60
2022/09/26 09:11:53;;;;;;;1.98;1.50;;;;;;;;;;4993770;28;20546;-60
2022/09/26 09:14:39;;;;;;;1.55;1.40;;;;;;;;;;4993500;28;20045;-60
2022/09/26 09:17:12;;;;;;;1.52;1.38;;;;;;;;;;4993489;28;20026;-60
2022/09/26 09:19:51;;;;;;;3.00;1.58;;;;;;;;;;4993565;28;20022;-60
2022/09/26 09:22:17;;;;;;;2.15;1.30;;;;;;;;;;4993488;28;20026;-60
2022/09/26 09:24:58;;;;;;;2.35;1.55;;;;;;;;;;4993444;28;20034;-60
2022/09/26 09:27:37;;;;;;;1.75;1.42;;;;;;;;;;4993428;28;20042;-60
2022/09/26 09:30:22;;;;;;;1.45;1.20;;;;;;;;;;4993263;28;20072;-60
2022/09/26 09:32:53;;;;;;;2.20;1.60;;;;;;;;;;4992566;28;20076;-60
2022/09/26 09:35:25;;;;;;;1.65;1.25;;;;;;;;;;4992738;28;20766;-60
2022/09/26 09:37:53;;;;;;;2.00;1.30;;;;;;;;;;4992759;28;20034;-60
2022/09/26 09:40:33;;;;;;;1.45;1.20;;;;;;;;;;4992502;28;20045;-60
2022/09/26 09:43:04;;;;;;;2.05;1.20;;;;;;;;;;4992624;28;20045;-60
2022/09/26 09:45:34;;;;;;;2.53;1.35;;;;;;;;;;4993261;28;20065;-60
2022/09/26 09:48:01;;;;;;;1.67;1.58;;;;;;;;;;4991288;28;20442;-60
2022/09/26 09:50:46;;;;;;;1.67;1.38;;;;;;;;;;4993178;28;20041;-60
2022/09/26 09:53:24;;;;;;;1.30;1.10;;;;;;;;;;4993123;28;20034;-60
2022/09/26 09:55:57;;;;;;;1.58;1.35;;;;;;;;;;4993039;28;20570;-60
2022/09/26 09:58:26;;;;;;;1.48;1.35;;;;;;;;;;4993149;28;20050;-60
2022/09/26 10:01:08;;;;;;;2.30;1.50;;;;;;;;;;4993093;28;20014;-60
2022/09/26 10:03:39;;;;;;;1.40;1.30;;;;;;;;;;4992846;28;20074;-60
2022/09/26 10:06:08;;;;;;;2.35;1.45;;;;;;;;;;4992906;28;20460;-60
2022/09/26 10:08:40;;;;;;;1.55;1.30;;;;;;;;;;4993048;28;20022;-60
2022/09/26 10:11:13;;;;;;;1.75;1.20;;;;;;;;;;4993356;28;20107;-60
2022/09/26 10:13:41;;;;;;;1.40;1.20;;;;;;;;;;4992951;28;20472;-60
2022/09/26 10:16:10;;;;;;;1.77;1.52;;;;;;;;;;4992803;28;20396;-60
2022/09/26 10:18:59;;;;;;;2.03;1.48;;;;;;;;;;4993005;28;20059;-60
2022/09/26 10:21:47;;;;;;;1.70;1.33;;;;;;;;;;4983701;28;20654;-60
2022/09/26 10:24:23;;;;;;;1.98;1.20;;;;;;;;;;4992871;28;20416;-60
2022/09/26 10:26:50;;;;;;;2.42;1.30;;;;;;;;;;4992695;28;20018;-60
2022/09/26 10:29:35;;;;;;;1.42;1.30;;;;;;;;;;4992914;28;20022;-60
2022/09/26 10:32:02;;;;;;;1.50;1.40;;;;;;;;;;4992813;28;20049;-60
2022/09/26 10:34:38;;;;;;;1.30;1.20;;;;;;;;;;4992701;28;20097;-60
2022/09/26 10:37:24;;;;;;;1.48;1.10;;;;;;;;;;4992897;28;20023;-60
2022/09/26 10:42:41;;;;;;;1.55;1.17;;;;;;;;;;4992757;28;20096;-60
2022/09/26 10:45:14;;;;;;;1.77;1.30;;;;;;;;;;4992822;28;20050;-60
2022/09/26 10:47:45;;;;;;;2.15;1.30;;;;;;;;;;4992698;28;20027;-60
2022/09/26 10:50:17;;;;;;;1.92;1.20;;;;;;;;;;4992741;28;20121;-60
2022/09/26 10:52:52;;;;;;;1.48;1.10;;;;;;;;;;4992717;28;20054;-60
2022/09/26 10:55:25;;;;;;;1.23;1.10;;;;;;;;;;4992791;28;20023;-59
2022/09/26 10:57:53;;;;;;;3.28;1.25;;;;;;;;;;4992038;28;20488;-60
2022/09/26 11:00:20;;;;;;;1.30;1.20;;;;;;;;;;4992419;28;20018;-61
2022/09/26 11:02:50;;;;;;;2.63;1.40;;;;;;;;;;4995081;28;20105;-60
2022/09/26 11:08:09;;;;;;;3.22;1.08;;;;;;;;;;4990684;28;20100;-61
2022/09/26 11:10:41;;;;;;;5.07;1.70;;;;;;;;;;4994964;28;20022;-60
2022/09/26 11:13:17;;;;;;;5.43;1.40;;;;;;;;;;4995630;28;20044;-60
2022/09/26 11:16:00;;;;;;;3.17;1.67;;;;;;;;;;4994987;28;20034;-61
2022/09/26 11:18:47;;;;;;;2.58;1.30;;;;;;;;;;4995516;28;20023;-61
2022/09/26 11:21:40;;;;;;;4.45;1.52;;;;;;;;;;4994632;28;20034;-61
2022/09/26 11:24:25;;;;;;;4.95;1.50;;;;;;;;;;4995219;28;20065;-61
2022/09/26 11:26:55;;;;;;;2.65;1.15;;;;;;;;;;4994718;28;20030;-61
2022/09/26 11:29:33;;;;;;;2.35;1.25;;;;;;;;;;4995545;28;20093;-61
2022/09/26 11:32:01;;;;;;;5.43;1.38;;;;;;;;;;4994088;28;20034;-59
2022/09/26 11:34:33;;;;;;;11.10;1.60;;;;;;;;;;4995145;28;20030;-60
2022/09/26 11:37:20;;;;;;;3.25;1.20;;;;;;;;;;4994493;28;20114;-60
2022/09/26 11:40:06;;;;;;;4.80;1.55;;;;;;;;;;4994623;28;20488;-60
2022/09/26 11:42:54;;;;;;;5.70;1.60;;;;;;;;;;4995154;28;20534;-60
2022/09/26 11:45:39;;;;;;;4.50;1.67;;;;;;;;;;4994750;28;20487;-60
2022/09/26 11:48:27;;;;;;;8.00;1.63;;;;;;;;;;4992764;28;20026;-59
2022/09/26 11:50:57;;;;;;;3.42;1.02;;;;;;;;;;4993346;28;20034;-64
2022/09/26 11:53:41;;;;;;;3.42;1.10;;;;;;;;;;4994601;28;20125;-63
2022/09/26 11:56:14;;;;;;;8.00;1.50;;;;;;;;;;4994716;28;20026;-63
2022/09/26 11:58:42;;;;;;;4.55;1.50;;;;;;;;;;4994304;28;20114;-60
2022/09/26 12:01:15;;;;;;;2.88;1.10;;;;;;;;;;4993646;28;20116;-60
2022/09/26 12:03:57;;;;;;;5.25;1.10;;;;;;;;;;4994620;28;20534;-62
2022/09/26 12:06:32;;;;;;;2.65;1.20;;;;;;;;;;4994926;28;20137;-63
2022/09/26 12:09:17;;;;;;;3.05;1.10;;;;;;;;;;4993306;28;20030;-65
2022/09/26 12:11:56;;;;;;;3.50;0.95;;;;;;;;;;4992667;28;20031;-63
2022/09/26 12:14:26;;;;;;;2.17;1.10;;;;;;;;;;4994636;28;20085;-63
2022/09/26 12:16:57;;;;;;;1.73;0.98;;;;;;;;;;4994538;28;20392;-60
2022/09/26 12:19:36;;;;;;;4.40;1.20;;;;;;;;;;4993703;28;20029;-61
2022/09/26 12:25:07;;;;;;;1.70;1.00;;;;;;;;;;4994435;28;20025;-61
2022/09/26 12:27:46;;;;;;;1.08;0.80;;;;;;;;;;4994445;28;20132;-60
2022/09/26 12:30:42;;;;;;;2.75;1.20;;;;;;;;;;4992323;28;20030;-61
2022/09/26 12:33:20;;;;;;;2.08;1.05;;;;;;;;;;4981752;28;20065;-61
2022/09/26 12:35:47;;;;;;;2.65;1.02;;;;;;;;;;4993493;28;20507;-61
2022/09/26 12:38:36;;;;;;;1.98;1.00;;;;;;;;;;4993352;28;20030;-62
2022/09/26 12:41:13;;;;;;;1.88;1.10;;;;;;;;;;5005967;28;20380;-55
2022/09/26 12:43:43;;;;;;;3.70;1.00;;;;;;;;;;5013553;28;20075;-63
2022/09/26 12:46:18;;;;;;;2.97;1.42;;;;;;;;;;5013307;28;20026;-62
2022/09/26 12:48:45;;;;;;;2.33;1.00;;;;;;;;;;5013690;28;20562;-61
2022/09/26 12:51:22;;;;;;;1.92;1.00;;;;;;;;;;5012052;28;20033;-61
2022/09/26 12:53:48;;;;;;;1.10;0.90;;;;;;;;;;5013475;28;20014;-60
2022/09/26 12:56:24;;;;;;;1.70;0.60;;;;;;;;;;5013395;28;20085;-63
2022/09/26 12:58:52;;;;;;;0.98;0.70;;;;;;;;;;5013478;28;20030;-60
2022/09/26 13:01:26;;;;;;;3.28;1.00;;;;;;;;;;5011427;28;20034;-61
2022/09/26 13:03:59;;;;;;;2.45;1.08;;;;;;;;;;5011496;28;20046;-61
2022/09/26 13:06:26;;;;;;;1.73;0.93;;;;;;;;;;4993762;28;20066;-62
2022/09/26 13:08:59;;;;;;;1.90;0.90;;;;;;;;;;4994075;28;20030;-62
2022/09/26 13:11:29;;;;;;;3.95;1.42;;;;;;;;;;4991261;28;20034;-62
2022/09/26 13:14:15;;;;;;;5.50;1.00;;;;;;;;;;4993151;28;20118;-60
2022/09/26 13:17:04;;;;;;;4.50;1.08;;;;;;;;;;4993524;28;20026;-59
2022/09/26 13:19:35;;;;;;;6.53;1.08;;;;;;;;;;4991880;28;20041;-59
2022/09/26 13:22:04;;;;;;;2.58;1.10;;;;;;;;;;4991519;28;20117;-59
2022/09/26 13:24:49;;;;;;;5.68;1.10;;;;;;;;;;4992761;28;20037;-59
2022/09/26 13:27:26;;;;;;;7.70;1.70;;;;;;;;;;4992611;28;20037;-60
2022/09/26 13:29:57;;;;;;;7.97;1.00;;;;;;;;;;4990307;28;20034;-59
2022/09/26 13:32:25;;;;;;;10.60;1.05;;;;;;;;;;4992089;28;20034;-59
2022/09/26 13:35:15;;;;;;;3.22;1.30;;;;;;;;;;4992500;28;20034;-58
2022/09/26 13:37:42;;;;;;;3.05;1.05;;;;;;;;;;4992402;28;20030;-59
2022/09/26 13:40:36;;;;;;;4.03;0.93;;;;;;;;;;4992071;28;20030;-60
2022/09/26 13:43:09;;;;;;;3.92;1.05;;;;;;;;;;4990260;28;20051;-59
2022/09/26 13:45:45;;;;;;;10.90;1.17;;;;;;;;;;4990888;28;20109;-59
2022/09/26 13:48:15;;;;;;;5.15;1.30;;;;;;;;;;4992478;28;20029;-59
2022/09/26 13:50:54;;;;;;;6.22;1.25;;;;;;;;;;4991910;28;20049;-61
2022/09/26 13:53:31;;;;;;;8.48;1.58;;;;;;;;;;4990170;28;20050;-59
2022/09/26 13:56:16;;;;;;;1.73;0.95;;;;;;;;;;4992026;28;20049;-61
2022/09/26 13:58:43;;;;;;;8.95;1.40;;;;;;;;;;4989943;28;20019;-61
2022/09/26 14:01:26;;;;;;;8.13;1.38;;;;;;;;;;4991551;28;20023;-61
2022/09/26 14:04:28;;;;;;;8.98;1.20;;;;;;;;;;4991172;28;20069;-61
2022/09/26 14:10:03;;;;;;;12.30;1.48;;;;;;;;;;4990816;28;20081;-64
2022/09/26 14:12:37;;;;;;;13.45;1.40;;;;;;;;;;4992171;28;20459;-61
2022/09/26 14:15:15;;;;;;;8.50;1.38;;;;;;;;;;4989578;28;20117;-60
2022/09/26 14:17:42;;;;;;;8.90;1.55;;;;;;;;;;4989982;28;20026;-59
2022/09/26 14:20:18;;;;;;;8.02;1.23;;;;;;;;;;4991225;28;20034;-61
2022/09/26 14:22:53;;;;;;;4.07;1.48;;;;;;;;;;4992249;28;20042;-60
2022/09/26 14:25:38;;;;;;;6.28;1.35;;;;;;;;;;4990422;28;20034;-60
2022/09/26 14:28:31;;;;;;;6.40;1.25;;;;;;;;;;4990534;28;20022;-60
2022/09/26 14:31:30;;;;;;;6.70;1.20;;;;;;;;;;4976366;28;20392;-60
2022/09/26 14:34:06;;;;;;;7.60;0.90;;;;;;;;;;4970300;28;20062;-60
2022/09/26 14:36:35;;;;;;;5.97;1.10;;;;;;;;;;4995337;28;20587;-60
2022/09/26 14:39:02;;;;;;;7.60;1.35;;;;;;;;;;4995802;28;20475;-60
2022/09/26 14:41:31;;;;;;;3.75;1.20;;;;;;;;;;4994936;28;20514;-60
2022/09/26 14:44:06;;;;;;;6.32;1.10;;;;;;;;;;4995803;28;20412;-61
2022/09/26 14:46:35;;;;;;;5.95;1.13;;;;;;;;;;4995622;28;20046;-61
2022/09/26 14:49:04;;;;;;;8.25;1.20;;;;;;;;;;4994848;28;20068;-61
2022/09/26 14:51:32;;;;;;;6.97;1.20;;;;;;;;;;4995758;28;20036;-60
2022/09/26 14:54:08;;;;;;;4.88;1.60;;;;;;;;;;4995587;28;20034;-61
2022/09/26 14:56:39;;;;;;;3.20;1.20;;;;;;;;;;4993722;28;20057;-61
2022/09/26 14:59:24;;;;;;;3.85;0.88;;;;;;;;;;4995607;28;20034;-60
2022/09/26 15:01:52;;;;;;;7.05;1.08;;;;;;;;;;4992743;28;20492;-61
2022/09/26 15:04:25;;;;;;;3.42;1.05;;;;;;;;;;4995338;28;20065;-60
2022/09/26 15:07:00;;;;;;;3.83;1.25;;;;;;;;;;4992793;28;20045;-60
2022/09/26 15:09:47;;;;;;;7.07;1.10;;;;;;;;;;4995398;28;20030;-61
2022/09/26 15:12:21;;;;;;;8.38;1.25;;;;;;;;;;4993000;28;20105;-60
2022/09/26 15:14:51;;;;;;;7.10;1.45;;;;;;;;;;4995373;28;20427;-61
2022/09/26 15:17:38;;;;;;;5.43;1.48;;;;;;;;;;4995347;28;20492;-60
2022/09/26 15:20:07;;;;;;;4.07;1.20;;;;;;;;;;4993727;28;20037;-61
2022/09/26 15:22:34;;;;;;;4.07;1.27;;;;;;;;;;4994832;28;20093;-60
2022/09/26 15:25:15;;;;;;;6.85;1.50;;;;;;;;;;4995355;28;20038;-60
2022/09/26 15:27:43;;;;;;;13.02;1.75;;;;;;;;;;4995242;28;20034;-61
2022/09/26 15:30:17;;;;;;;6.43;1.50;;;;;;;;;;4995773;28;20031;-60
2022/09/26 15:32:47;;;;;;;4.15;1.73;;;;;;;;;;4995109;28;20030;-60
2022/09/26 15:35:15;;;;;;;7.85;2.08;;;;;;;;;;4994827;28;20235;-61
2022/09/26 15:37:42;;;;;;;8.13;2.60;;;;;;;;;;4994744;28;20023;-61